createdAt,value
2022-11-28T00:00:08.872Z,98801.00
2022-11-28T00:02:56.774Z,98791.00
2022-11-28T00:05:47.048Z,98773.00
2022-11-28T00:08:36.287Z,98770.00
2022-11-28T00:11:24.194Z,98761.00
2022-11-28T00:14:12.502Z,98746.00
2022-11-28T00:17:00.052Z,98745.00
2022-11-28T00:19:47.965Z,98731.00
2022-11-28T00:22:35.542Z,98717.00
2022-11-28T00:25:22.936Z,98717.00
2022-11-28T00:28:10.906Z,98724.00
2022-11-28T00:30:58.723Z,98721.00
2022-11-28T00:33:47.227Z,98729.00
2022-11-28T00:36:35.047Z,98730.00
2022-11-28T00:39:23.213Z,98722.00
2022-11-28T00:42:10.911Z,98718.00
2022-11-28T00:44:58.726Z,98714.00
2022-11-28T00:47:48.561Z,98713.00
2022-11-28T00:50:36.523Z,98717.00
2022-11-28T00:53:23.906Z,98715.00
2022-11-28T00:56:15.357Z,98719.00
2022-11-28T00:59:03.641Z,98716.00
2022-11-28T01:01:51.735Z,98719.00
2022-11-28T01:04:39.848Z,98727.00
2022-11-28T01:07:28.808Z,98712.00
2022-11-28T01:10:16.811Z,98713.00
2022-11-28T01:13:04.666Z,98711.00
2022-11-28T01:15:52.369Z,98699.00
2022-11-28T01:18:40.197Z,98698.00
2022-11-28T01:21:28.411Z,98704.00
2022-11-28T01:24:16.770Z,98698.00
2022-11-28T01:27:04.669Z,98706.00
2022-11-28T01:29:52.651Z,98718.00
2022-11-28T01:32:40.041Z,98716.00
2022-11-28T01:35:28.126Z,98715.00
2022-11-28T01:38:15.711Z,98700.00
2022-11-28T01:41:04.881Z,98703.00
2022-11-28T01:44:15.702Z,98703.00
2022-11-28T01:47:03.741Z,98706.00
2022-11-28T01:49:54.573Z,98699.00
2022-11-28T01:52:50.376Z,98693.00
2022-11-28T01:55:48.991Z,98708.00
2022-11-28T01:58:43.218Z,98695.00
2022-11-28T02:01:31.627Z,98684.00
2022-11-28T02:04:20.496Z,98678.00
2022-11-28T02:07:08.516Z,98669.00
2022-11-28T02:09:56.717Z,98670.00
2022-11-28T02:12:52.186Z,98663.00
2022-11-28T02:15:49.804Z,98658.00
2022-11-28T02:19:41.681Z,98653.00
2022-11-28T02:23:18.307Z,98642.00
2022-11-28T02:26:30.431Z,98647.00
2022-11-28T02:30:01.992Z,98644.00
2022-11-28T02:33:19.721Z,98645.00
2022-11-28T02:36:24.566Z,98647.00
2022-11-28T02:39:32.177Z,98641.00
2022-11-28T02:42:33.616Z,98632.00
2022-11-28T02:46:17.389Z,98630.00
2022-11-28T02:49:11.882Z,98632.00
2022-11-28T02:52:19.271Z,98632.00
2022-11-28T02:55:08.662Z,98640.00
2022-11-28T02:57:56.461Z,98642.00
2022-11-28T03:00:47.458Z,98637.00
2022-11-28T03:04:06.431Z,98639.00
2022-11-28T03:08:07.701Z,98623.00
2022-11-28T03:10:59.538Z,98631.00
2022-11-28T03:14:36.497Z,98625.00
2022-11-28T03:17:26.781Z,98619.00
2022-11-28T03:20:22.902Z,98630.00
2022-11-28T03:23:30.581Z,98627.00
2022-11-28T03:26:51.667Z,98614.00
2022-11-28T03:29:50.337Z,98608.00
2022-11-28T03:32:41.771Z,98597.00
2022-11-28T03:35:37.008Z,98600.00
2022-11-28T03:38:34.715Z,98606.00
2022-11-28T03:41:57.327Z,98599.00
2022-11-28T03:45:08.351Z,98597.00
2022-11-28T03:48:24.016Z,98593.00
2022-11-28T03:51:41.152Z,98596.00
2022-11-28T03:54:46.343Z,98601.00
2022-11-28T03:57:44.043Z,98600.00
2022-11-28T04:00:35.847Z,98599.00
2022-11-28T04:03:33.967Z,98604.00
2022-11-28T04:06:46.662Z,98589.00
2022-11-28T04:10:01.026Z,98587.00
2022-11-28T04:13:28.987Z,98584.00
2022-11-28T04:16:34.750Z,98589.00
2022-11-28T04:19:42.041Z,98588.00
2022-11-28T04:22:53.312Z,98595.00
2022-11-28T04:25:51.227Z,98593.00
2022-11-28T04:28:41.957Z,98597.00
2022-11-28T04:31:32.905Z,98598.00
2022-11-28T04:34:25.536Z,98610.00
2022-11-28T04:37:16.174Z,98613.00
2022-11-28T04:40:10.066Z,98601.00
2022-11-28T04:43:10.006Z,98604.00
2022-11-28T04:46:09.843Z,98597.00
2022-11-28T04:48:59.210Z,98589.00
2022-11-28T04:52:27.787Z,98594.00
2022-11-28T04:55:52.972Z,98584.00
2022-11-28T04:58:46.583Z,98567.00
2022-11-28T05:01:37.315Z,98571.00
2022-11-28T05:04:25.402Z,98573.00
2022-11-28T05:07:13.704Z,98565.00
2022-11-28T05:10:01.628Z,98557.00
2022-11-28T05:12:49.077Z,98558.00
2022-11-28T05:15:36.987Z,98567.00
2022-11-28T05:18:24.436Z,98567.00
2022-11-28T05:21:12.875Z,98565.00
2022-11-28T05:24:00.461Z,98554.00
2022-11-28T05:26:48.227Z,98558.00
2022-11-28T05:29:35.621Z,98560.00
2022-11-28T05:32:23.241Z,98552.00
2022-11-28T05:35:11.372Z,98550.00
2022-11-28T05:37:59.167Z,98553.00
2022-11-28T05:40:46.762Z,98544.00
2022-11-28T05:43:34.954Z,98538.00
2022-11-28T05:46:23.701Z,98537.00
2022-11-28T05:49:11.267Z,98546.00
2022-11-28T05:51:58.877Z,98537.00
2022-11-28T05:54:46.602Z,98545.00
2022-11-28T05:57:34.217Z,98539.00
2022-11-28T06:00:22.536Z,98549.00
2022-11-28T06:03:10.422Z,98548.00
2022-11-28T06:05:58.423Z,98546.00
2022-11-28T06:08:48.921Z,98531.00
2022-11-28T06:11:36.981Z,98534.00
2022-11-28T06:14:24.678Z,98531.00
2022-11-28T06:17:12.128Z,98552.00
2022-11-28T06:19:59.877Z,98552.00
2022-11-28T06:22:48.201Z,98564.00
2022-11-28T06:25:36.026Z,98563.00
2022-11-28T06:28:24.003Z,98573.00
2022-11-28T06:31:19.299Z,98564.00
2022-11-28T06:34:07.062Z,98572.00
2022-11-28T06:36:54.913Z,98568.00
2022-11-28T06:39:43.265Z,98567.00
2022-11-28T06:42:31.186Z,98568.00
2022-11-28T06:45:19.026Z,98571.00
2022-11-28T06:48:07.066Z,98566.00
2022-11-28T06:51:01.962Z,98569.00
2022-11-28T06:53:53.122Z,98575.00
2022-11-28T06:56:42.111Z,98571.00
2022-11-28T06:59:29.797Z,98566.00
2022-11-28T07:02:17.442Z,98564.00
2022-11-28T07:05:06.277Z,98569.00
2022-11-28T07:07:55.288Z,98564.00
2022-11-28T07:10:43.236Z,98567.00
2022-11-28T07:13:30.902Z,98574.00
2022-11-28T07:16:23.284Z,98578.00
2022-11-28T07:19:13.302Z,98573.00
2022-11-28T07:22:00.842Z,98573.00
2022-11-28T07:24:48.596Z,98575.00
2022-11-28T07:27:36.331Z,98574.00
2022-11-28T07:30:24.021Z,98585.00
2022-11-28T07:33:11.547Z,98588.00
2022-11-28T07:36:06.456Z,98592.00
2022-11-28T07:39:00.342Z,98580.00
2022-11-28T07:41:48.512Z,98591.00
2022-11-28T07:44:35.909Z,98584.00
2022-11-28T07:47:24.188Z,98585.00
2022-11-28T07:50:11.648Z,98583.00
2022-11-28T07:53:02.865Z,98597.00
2022-11-28T07:55:54.394Z,98595.00
2022-11-28T07:58:44.628Z,98588.00
2022-11-28T08:01:38.571Z,98585.00
2022-11-28T08:04:26.333Z,98591.00
2022-11-28T08:07:14.455Z,98583.00
2022-11-28T08:10:02.268Z,98586.00
2022-11-28T08:12:49.701Z,98575.00
2022-11-28T08:15:38.917Z,98577.00
2022-11-28T08:18:26.578Z,98574.00
2022-11-28T08:21:28.022Z,98567.00
2022-11-28T08:24:15.711Z,98569.00
2022-11-28T08:27:03.387Z,98569.00
2022-11-28T08:29:53.424Z,98569.00
2022-11-28T08:32:41.621Z,98560.00
2022-11-28T08:35:29.551Z,98558.00
2022-11-28T08:38:17.482Z,98546.00
2022-11-28T08:41:15.377Z,98543.00
2022-11-28T08:44:03.216Z,98536.00
2022-11-28T08:46:51.075Z,98550.00
2022-11-28T08:49:39.872Z,98544.00
2022-11-28T08:52:27.442Z,98545.00
2022-11-28T08:55:15.481Z,98540.00
2022-11-28T08:58:03.037Z,98551.00
2022-11-28T09:00:50.953Z,98545.00
2022-11-28T09:03:38.475Z,98546.00
2022-11-28T09:06:26.574Z,98548.00
2022-11-28T09:09:14.420Z,98535.00
2022-11-28T09:12:01.892Z,98542.00
2022-11-28T09:14:49.376Z,98537.00
2022-11-28T09:17:36.980Z,98539.00
2022-11-28T09:20:24.674Z,98526.00
2022-11-28T09:23:12.650Z,98537.00
2022-11-28T09:26:00.336Z,98523.00
2022-11-28T09:28:48.884Z,98529.00
2022-11-28T09:31:36.671Z,98523.00
2022-11-28T09:34:24.342Z,98513.00
2022-11-28T09:37:12.021Z,98510.00
2022-11-28T09:40:13.045Z,98497.00
2022-11-28T09:43:22.257Z,98489.00
2022-11-28T09:46:21.180Z,98487.00
2022-11-28T09:49:40.294Z,98475.00
2022-11-28T09:53:12.782Z,98462.00
2022-11-28T09:56:15.964Z,98466.00
2022-11-28T09:59:11.381Z,98462.00
2022-11-28T10:02:35.011Z,98459.00
2022-11-28T10:05:45.167Z,98468.00
2022-11-28T10:09:09.480Z,98462.00
2022-11-28T10:12:28.294Z,98466.00
2022-11-28T10:15:43.383Z,98457.00
2022-11-28T10:18:44.137Z,98455.00
2022-11-28T10:21:43.381Z,98454.00
2022-11-28T10:24:45.003Z,98451.00
2022-11-28T10:27:36.656Z,98455.00
2022-11-28T10:30:27.053Z,98462.00
2022-11-28T10:33:46.377Z,98454.00
2022-11-28T10:36:57.961Z,98452.00
2022-11-28T10:39:46.222Z,98455.00
2022-11-28T10:42:53.482Z,98458.00
2022-11-28T10:45:52.359Z,98446.00
2022-11-28T10:48:51.103Z,98442.00
2022-11-28T10:51:52.343Z,98444.00
2022-11-28T10:54:58.650Z,98443.00
2022-11-28T10:58:00.150Z,98447.00
2022-11-28T11:00:50.353Z,98444.00
2022-11-28T11:03:40.326Z,98446.00
2022-11-28T11:06:40.791Z,98437.00
2022-11-28T11:09:29.163Z,98427.00
2022-11-28T11:12:26.121Z,98434.00
2022-11-28T11:15:24.505Z,98438.00
2022-11-28T11:18:53.152Z,98433.00
2022-11-28T11:21:40.946Z,98440.00
2022-11-28T11:24:28.643Z,98431.00
2022-11-28T11:27:23.146Z,98432.00
2022-11-28T11:30:27.052Z,98440.00
2022-11-28T11:33:18.019Z,98428.00
2022-11-28T11:36:24.166Z,98430.00
2022-11-28T11:39:11.715Z,98427.00
2022-11-28T11:42:01.952Z,98434.00
2022-11-28T11:44:50.272Z,98426.00
2022-11-28T11:47:44.916Z,98432.00
2022-11-28T11:50:33.387Z,98429.00
2022-11-28T11:53:20.915Z,98427.00
2022-11-28T11:56:10.162Z,98427.00
2022-11-28T11:59:01.566Z,98426.00
2022-11-28T12:01:59.067Z,98421.00
2022-11-28T12:05:00.348Z,98411.00
2022-11-28T12:08:15.566Z,98405.00
2022-11-28T12:11:20.526Z,98401.00
2022-11-28T12:14:31.789Z,98398.00
2022-11-28T12:17:49.607Z,98409.00
2022-11-28T12:21:13.322Z,98416.00
2022-11-28T12:24:15.822Z,98422.00
2022-11-28T12:27:35.706Z,98420.00
2022-11-28T12:30:58.301Z,98426.00
2022-11-28T12:34:22.096Z,98441.00
2022-11-28T12:38:10.754Z,98442.00
2022-11-28T12:41:31.967Z,98437.00
2022-11-28T12:44:57.383Z,98433.00
2022-11-28T12:48:22.748Z,98430.00
2022-11-28T12:51:41.188Z,98429.00
2022-11-28T12:54:28.747Z,98424.00
2022-11-28T12:57:56.037Z,98424.00
2022-11-28T13:01:23.574Z,98429.00
2022-11-28T13:04:34.522Z,98424.00
2022-11-28T13:07:39.319Z,98426.00
2022-11-28T13:10:59.352Z,98415.00
2022-11-28T13:14:04.050Z,98421.00
2022-11-28T13:16:56.329Z,98418.00
2022-11-28T13:19:55.283Z,98413.00
2022-11-28T13:23:07.585Z,98415.00
2022-11-28T13:26:11.015Z,98409.00
2022-11-28T13:29:31.837Z,98424.00
2022-11-28T13:32:25.123Z,98423.00
2022-11-28T13:35:16.766Z,98422.00
2022-11-28T13:38:36.177Z,98422.00
2022-11-28T13:42:09.644Z,98423.00
2022-11-28T13:45:07.626Z,98427.00
2022-11-28T13:47:55.736Z,98429.00
2022-11-28T13:51:00.283Z,98445.00
2022-11-28T13:54:09.072Z,98441.00
2022-11-28T13:57:28.253Z,98435.00
2022-11-28T14:00:23.860Z,98439.00
2022-11-28T14:03:20.482Z,98442.00
2022-11-28T14:06:08.577Z,98437.00
2022-11-28T14:09:09.773Z,98436.00
2022-11-28T14:12:26.581Z,98440.00
2022-11-28T14:15:46.178Z,98444.00
2022-11-28T14:18:57.289Z,98450.00
2022-11-28T14:22:09.431Z,98446.00
2022-11-28T14:25:28.748Z,98444.00
2022-11-28T14:28:33.782Z,98440.00
2022-11-28T14:31:40.246Z,98445.00
2022-11-28T14:34:46.115Z,98446.00
2022-11-28T14:37:34.851Z,98445.00
2022-11-28T14:40:53.417Z,98446.00
2022-11-28T14:43:50.283Z,98453.00
2022-11-28T14:47:31.992Z,98450.00
2022-11-28T14:50:20.817Z,98449.00
2022-11-28T14:53:44.847Z,98452.00
2022-11-28T14:56:34.596Z,98451.00
2022-11-28T14:59:30.675Z,98454.00
2022-11-28T15:02:52.728Z,98441.00
2022-11-28T15:05:47.294Z,98460.00
2022-11-28T15:09:13.626Z,98453.00
2022-11-28T15:12:17.793Z,98447.00
2022-11-28T15:15:08.126Z,98455.00
2022-11-28T15:17:59.416Z,98455.00
2022-11-28T15:21:01.239Z,98457.00
2022-11-28T15:23:49.218Z,98458.00
2022-11-28T15:26:36.692Z,98453.00
2022-11-28T15:29:29.381Z,98460.00
2022-11-28T15:32:17.088Z,98463.00
2022-11-28T15:35:12.547Z,98462.00
2022-11-28T15:38:00.981Z,98470.00
2022-11-28T15:40:54.242Z,98460.00
2022-11-28T15:43:46.157Z,98462.00
2022-11-28T15:46:35.307Z,98459.00
2022-11-28T15:49:35.391Z,98468.00
2022-11-28T15:52:23.372Z,98462.00
2022-11-28T15:55:17.697Z,98462.00
2022-11-28T15:58:23.576Z,98463.00
2022-11-28T16:01:23.728Z,98459.00
2022-11-28T16:04:17.677Z,98455.00
2022-11-28T16:07:05.306Z,98462.00
2022-11-28T16:10:08.116Z,98465.00
2022-11-28T16:13:11.563Z,98465.00
2022-11-28T16:16:01.696Z,98468.00
2022-11-28T16:18:59.273Z,98469.00
2022-11-28T16:22:01.693Z,98464.00
2022-11-28T16:24:55.570Z,98469.00
2022-11-28T16:27:45.953Z,98466.00
2022-11-28T16:30:42.897Z,98468.00
2022-11-28T16:33:43.297Z,98461.00
2022-11-28T16:36:36.418Z,98467.00
2022-11-28T16:39:24.326Z,98469.00
2022-11-28T16:42:20.517Z,98469.00
2022-11-28T16:45:15.880Z,98469.00
2022-11-28T16:48:15.909Z,98472.00
2022-11-28T16:51:03.369Z,98468.00
2022-11-28T16:53:51.730Z,98469.00
2022-11-28T16:56:43.789Z,98452.00
2022-11-28T16:59:31.306Z,98452.00
2022-11-28T17:02:25.182Z,98451.00
2022-11-28T17:05:12.736Z,98456.00
2022-11-28T17:08:01.821Z,98457.00
2022-11-28T17:10:49.447Z,98451.00
2022-11-28T17:13:36.902Z,98454.00
2022-11-28T17:16:27.490Z,98454.00
2022-11-28T17:19:15.371Z,98460.00
2022-11-28T17:22:03.555Z,98453.00
2022-11-28T17:24:58.131Z,98443.00
2022-11-28T17:27:48.168Z,98447.00
2022-11-28T17:30:35.736Z,98455.00
2022-11-28T17:33:23.307Z,98455.00
2022-11-28T17:36:12.412Z,98460.00
2022-11-28T17:39:04.863Z,98450.00
2022-11-28T17:41:52.753Z,98453.00
2022-11-28T17:44:41.175Z,98456.00
2022-11-28T17:47:28.859Z,98454.00
2022-11-28T17:50:17.656Z,98453.00
2022-11-28T17:53:05.161Z,98451.00
2022-11-28T17:55:58.521Z,98447.00
2022-11-28T17:58:46.281Z,98443.00
2022-11-28T18:01:33.847Z,98453.00
2022-11-28T18:04:21.426Z,98455.00
2022-11-28T18:07:08.882Z,98456.00
2022-11-28T18:09:56.487Z,98451.00
2022-11-28T18:12:43.906Z,98444.00
2022-11-28T18:15:35.692Z,98447.00
2022-11-28T18:18:23.114Z,98445.00
2022-11-28T18:21:12.375Z,98449.00
2022-11-28T18:23:59.806Z,98444.00
2022-11-28T18:26:47.241Z,98442.00
2022-11-28T18:29:34.737Z,98452.00
2022-11-28T18:32:22.432Z,98439.00
2022-11-28T18:35:10.852Z,98449.00
2022-11-28T18:37:58.511Z,98433.00
2022-11-28T18:40:45.921Z,98445.00
2022-11-28T18:43:34.351Z,98451.00
2022-11-28T18:46:21.792Z,98447.00
2022-11-28T18:49:17.590Z,98445.00
2022-11-28T18:52:05.345Z,98444.00
2022-11-28T18:54:53.462Z,98449.00
2022-11-28T18:57:41.474Z,98456.00
2022-11-28T19:00:29.031Z,98437.00
2022-11-28T19:03:16.426Z,98449.00
2022-11-28T19:06:07.477Z,98453.00
2022-11-28T19:08:58.846Z,98452.00
2022-11-28T19:11:47.557Z,98453.00
2022-11-28T19:14:35.406Z,98446.00
2022-11-28T19:17:22.975Z,98444.00
2022-11-28T19:20:11.157Z,98445.00
2022-11-28T19:22:58.756Z,98441.00
2022-11-28T19:25:49.144Z,98440.00
2022-11-28T19:28:39.012Z,98440.00
2022-11-28T19:31:30.338Z,98435.00
2022-11-28T19:34:19.083Z,98442.00
2022-11-28T19:37:06.930Z,98438.00
2022-11-28T19:39:58.519Z,98445.00
2022-11-28T19:42:49.330Z,98446.00
2022-11-28T19:45:36.863Z,98442.00
2022-11-28T19:48:24.861Z,98449.00
2022-11-28T19:51:14.581Z,98455.00
2022-11-28T19:54:04.155Z,98451.00
2022-11-28T19:56:52.333Z,98456.00
2022-11-28T19:59:39.855Z,98452.00
2022-11-28T20:02:27.355Z,98446.00
2022-11-28T20:05:14.955Z,98452.00
2022-11-28T20:08:02.726Z,98445.00
2022-11-28T20:10:50.186Z,98449.00
2022-11-28T20:13:37.946Z,98452.00
2022-11-28T20:16:28.081Z,98458.00
2022-11-28T20:19:16.172Z,98453.00
2022-11-28T20:22:04.011Z,98458.00
2022-11-28T20:24:51.723Z,98454.00
2022-11-28T20:27:39.872Z,98459.00
2022-11-28T20:30:27.402Z,98455.00
2022-11-28T20:33:14.932Z,98458.00
2022-11-28T20:36:14.746Z,98457.00
2022-11-28T20:39:04.121Z,98451.00
2022-11-28T20:41:52.061Z,98455.00
2022-11-28T20:44:39.420Z,98457.00
2022-11-28T20:47:26.966Z,98454.00
2022-11-28T20:50:14.441Z,98453.00
2022-11-28T20:53:01.861Z,98449.00
2022-11-28T20:55:49.307Z,98457.00
2022-11-28T20:58:37.147Z,98455.00
2022-11-28T21:01:28.881Z,98460.00
2022-11-28T21:04:18.409Z,98455.00
2022-11-28T21:07:05.906Z,98450.00
2022-11-28T21:10:00.335Z,98446.00
2022-11-28T21:12:48.282Z,98447.00
2022-11-28T21:15:41.515Z,98447.00
2022-11-28T21:18:29.150Z,98458.00
2022-11-28T21:21:22.266Z,98456.00
2022-11-28T21:24:13.639Z,98459.00
2022-11-28T21:27:01.142Z,98450.00
2022-11-28T21:29:52.665Z,98444.00
2022-11-28T21:32:40.335Z,98444.00
2022-11-28T21:35:27.940Z,98445.00
2022-11-28T21:38:15.516Z,98450.00
2022-11-28T21:41:03.384Z,98443.00
2022-11-28T21:43:51.151Z,98440.00
2022-11-28T21:46:38.746Z,98456.00
2022-11-28T21:49:26.208Z,98446.00
2022-11-28T21:52:13.790Z,98454.00
2022-11-28T21:55:01.366Z,98449.00
2022-11-28T21:57:48.926Z,98447.00
2022-11-28T22:00:53.108Z,98444.00
2022-11-28T22:03:43.710Z,98450.00
2022-11-28T22:06:31.821Z,98436.00
2022-11-28T22:09:19.371Z,98442.00
2022-11-28T22:12:07.491Z,98454.00
2022-11-28T22:14:55.241Z,98449.00
2022-11-28T22:17:43.095Z,98445.00
2022-11-28T22:20:30.775Z,98446.00
2022-11-28T22:23:19.406Z,98447.00
2022-11-28T22:26:08.485Z,98443.00
2022-11-28T22:28:56.352Z,98448.00
2022-11-28T22:31:44.291Z,98443.00
2022-11-28T22:34:40.383Z,98441.00
2022-11-28T22:37:28.601Z,98443.00
2022-11-28T22:40:16.341Z,98444.00
2022-11-28T22:43:03.994Z,98450.00
2022-11-28T22:45:58.788Z,98454.00
2022-11-28T22:48:46.385Z,98451.00
2022-11-28T22:51:33.967Z,98451.00
2022-11-28T22:54:22.323Z,98452.00
2022-11-28T22:57:09.870Z,98450.00
2022-11-28T22:59:57.790Z,98446.00
2022-11-28T23:02:45.933Z,98452.00
2022-11-28T23:05:34.108Z,98449.00
2022-11-28T23:08:24.524Z,98448.00
2022-11-28T23:11:21.955Z,98442.00
2022-11-28T23:14:16.687Z,98441.00
2022-11-28T23:17:04.464Z,98436.00
2022-11-28T23:19:52.161Z,98442.00
2022-11-28T23:22:39.821Z,98441.00
2022-11-28T23:25:27.712Z,98435.00
2022-11-28T23:28:15.391Z,98432.00
2022-11-28T23:31:13.982Z,98432.00
2022-11-28T23:34:02.640Z,98432.00
2022-11-28T23:36:50.580Z,98433.00
2022-11-28T23:39:37.981Z,98428.00
2022-11-28T23:42:25.465Z,98432.00
2022-11-28T23:45:13.200Z,98430.00
2022-11-28T23:48:00.526Z,98426.00
2022-11-28T23:50:48.492Z,98434.00
2022-11-28T23:53:37.016Z,98429.00
2022-11-28T23:56:28.737Z,98432.00
2022-11-28T23:59:16.376Z,98432.00
